Time;durP1;ratioP1;P1;durP2;ratioP2;P2;SDS_P1;SDS_P2;PMS_P1;PMS_P2;Temp;Humidity;BMP_temperature;BMP_pressure;BME280_temperature;BME280_humidity;BME280_pressure;Samples;Min_cycle;Max_cycle;Signal;HPM_P1;HPM_P2
2023/08/04 00:00:37;;;;;;;2.13;1.20;;;;;;;19.13;58.34;98188.59;6927656;28;20270;-82
2023/08/04 00:03:58;;;;;;;3.40;1.60;;;;;;;18.29;61.07;98182.75;6906222;28;20236;-82
2023/08/04 00:07:20;;;;;;;1.60;1.50;;;;;;;18.55;61.22;98181.75;6897572;28;20232;-83
2023/08/04 00:10:43;;;;;;;1.63;1.37;;;;;;;19.37;59.04;98193.25;6896161;28;20311;-82
2023/08/04 00:14:04;;;;;;;1.73;1.53;;;;;;;19.62;57.80;98178.69;6921771;28;20294;-82
2023/08/04 00:17:26;;;;;;;3.20;1.60;;;;;;;19.54;57.36;98190.22;6921596;28;20689;-82
2023/08/04 00:20:47;;;;;;;3.60;1.70;;;;;;;19.54;57.84;98187.47;6922758;28;20305;-82
2023/08/04 00:24:09;;;;;;;1.90;1.80;;;;;;;19.62;57.43;98186.91;6921948;28;20691;-82
2023/08/04 00:27:31;;;;;;;2.63;1.50;;;;;;;19.78;56.94;98186.59;6926766;28;20270;-83
2023/08/04 00:30:53;;;;;;;3.90;1.60;;;;;;;19.38;57.12;98189.44;6925313;28;20803;-84
2023/08/04 00:34:14;;;;;;;2.77;1.80;;;;;;;19.34;57.51;98188.34;6925073;28;20209;-83
2023/08/04 00:37:36;;;;;;;1.50;1.40;;;;;;;19.52;57.13;98184.22;6925210;28;20208;-83
2023/08/04 00:40:57;;;;;;;3.20;1.73;;;;;;;19.32;57.23;98187.81;6925006;28;20289;-83
2023/08/04 00:44:20;;;;;;;3.47;1.73;;;;;;;18.78;59.42;98196.78;6924834;28;20254;-83
2023/08/04 00:47:42;;;;;;;1.97;1.50;;;;;;;19.14;58.40;98195.72;6924729;28;20236;-83
2023/08/04 00:51:03;;;;;;;3.70;1.60;;;;;;;19.36;57.69;98205.31;6924713;28;20254;-83
2023/08/04 00:54:25;;;;;;;1.53;1.43;;;;;;;19.06;57.83;98188.91;6925766;28;20211;-84
2023/08/04 00:57:48;;;;;;;3.97;1.40;;;;;;;19.27;57.85;98211.59;6924255;28;20276;-82
2023/08/04 01:01:11;;;;;;;1.40;1.30;;;;;;;19.29;57.39;98212.94;6896195;28;20296;-84
2023/08/04 01:04:32;;;;;;;3.20;1.80;;;;;;;19.20;57.92;98200.91;6897124;28;20235;-82
2023/08/04 01:07:57;;;;;;;3.27;1.80;;;;;;;19.27;57.50;98206.94;6902906;28;20371;-83
2023/08/04 01:11:21;;;;;;;1.57;1.47;;;;;;;19.35;56.72;98180.97;6892565;28;20236;-81
2023/08/04 01:14:43;;;;;;;1.60;1.50;;;;;;;19.23;57.71;98194.91;6892564;28;20215;-81
2023/08/04 01:18:06;;;;;;;4.23;1.60;;;;;;;18.69;59.02;98196.50;6891921;28;20689;-82
2023/08/04 01:21:39;;;;;;;4.90;1.60;;;;;;;19.15;57.05;98195.44;6891532;28;20311;-82
2023/08/04 01:25:04;;;;;;;1.73;1.40;;;;;;;18.58;58.16;98174.94;6892749;28;20279;-82
2023/08/04 01:28:26;;;;;;;3.37;1.83;;;;;;;18.62;58.73;98192.41;6892196;28;20311;-82
2023/08/04 01:31:48;;;;;;;4.03;2.13;;;;;;;18.67;59.24;98206.06;6893486;28;20270;-82
2023/08/04 01:35:10;;;;;;;2.33;1.80;;;;;;;18.07;61.57;98203.16;6893670;28;20241;-82
2023/08/04 01:38:33;;;;;;;5.10;1.60;;;;;;;18.64;59.54;98191.03;6892357;28;20241;-82
2023/08/04 01:41:54;;;;;;;3.47;1.70;;;;;;;18.78;59.45;98189.44;6894349;28;20589;-82
2023/08/04 01:45:16;;;;;;;1.53;1.43;;;;;;;19.22;58.04;98187.00;6892613;28;20299;-82
2023/08/04 01:48:38;;;;;;;2.30;1.60;;;;;;;19.05;57.40;98189.16;6891765;28;20370;-82
2023/08/04 01:51:59;;;;;;;3.13;1.67;;;;;;;18.92;57.96;98181.53;6892884;28;20391;-82
2023/08/04 01:55:22;;;;;;;3.33;1.70;;;;;;;18.64;58.16;98182.84;6896813;28;20220;-83
2023/08/04 01:58:43;;;;;;;3.07;1.77;;;;;;;18.50;58.71;98192.66;6901803;28;20718;-83
2023/08/04 02:02:05;;;;;;;1.50;1.40;;;;;;;18.61;59.66;98188.88;6905214;28;20267;-83
2023/08/04 02:05:27;;;;;;;2.23;1.40;;;;;;;18.68;59.50;98188.59;6893398;28;20402;-82
2023/08/04 02:08:49;;;;;;;2.63;1.70;;;;;;;18.61;60.21;98190.78;6897453;28;20351;-82
2023/08/04 02:12:12;;;;;;;3.20;1.70;;;;;;;18.61;60.50;98188.03;6897908;28;20801;-82
2023/08/04 02:15:33;;;;;;;2.00;1.80;;;;;;;19.08;59.16;98172.22;6897599;28;20303;-82
2023/08/04 02:19:01;;;;;;;2.87;1.73;;;;;;;18.88;58.43;98177.69;6895336;28;20686;-83
2023/08/04 02:22:22;;;;;;;3.03;1.77;;;;;;;19.04;59.13;98165.69;6896025;28;20263;-82
2023/08/04 02:25:44;;;;;;;2.20;1.60;;;;;;;19.13;58.75;98175.78;6923284;28;20231;-83
2023/08/04 02:29:07;;;;;;;1.60;1.50;;;;;;;18.90;58.95;98180.97;6933005;28;20243;-83
2023/08/04 02:32:28;;;;;;;2.40;1.70;;;;;;;18.53;60.48;98186.69;6943541;28;20228;-82
2023/08/04 02:35:50;;;;;;;2.77;1.70;;;;;;;18.81;59.89;98194.34;6931341;28;20224;-83
2023/08/04 02:39:11;;;;;;;1.77;1.53;;;;;;;18.82;59.87;98192.44;6908283;28;20231;-83
2023/08/04 02:42:33;;;;;;;1.93;1.73;;;;;;;18.80;59.32;98170.06;6909059;28;20228;-83
2023/08/04 02:45:56;;;;;;;2.03;1.60;;;;;;;18.87;59.23;98195.19;6906980;28;20212;-82
2023/08/04 02:49:18;;;;;;;3.17;1.90;;;;;;;18.80;59.41;98191.91;6907430;28;20232;-83
2023/08/04 02:52:39;;;;;;;3.17;1.60;;;;;;;18.69;59.33;98188.31;6907233;28;20250;-83
2023/08/04 02:56:01;;;;;;;2.07;1.80;;;;;;;18.92;59.20;98189.72;6907292;28;20260;-83
2023/08/04 02:59:22;;;;;;;2.47;1.30;;;;;;;18.72;59.14;98162.38;6907795;28;20208;-83
2023/08/04 03:02:45;;;;;;;2.60;1.80;;;;;;;18.91;58.78;98188.06;6902723;28;20260;-82
2023/08/04 03:06:07;;;;;;;3.50;1.70;;;;;;;18.89;58.96;98196.56;6905947;28;20662;-82
2023/08/04 03:09:29;;;;;;;6.67;1.73;;;;;;;18.97;58.87;98190.53;6905656;28;20224;-82
2023/08/04 03:12:50;;;;;;;2.37;1.30;;;;;;;18.87;58.73;98193.25;6905423;28;20319;-83
2023/08/04 03:16:12;;;;;;;1.70;1.60;;;;;;;18.88;59.19;98194.09;6905065;28;20258;-82
2023/08/04 03:19:34;;;;;;;2.67;1.70;;;;;;;18.81;59.73;98196.28;6899856;28;20291;-82
2023/08/04 03:22:56;;;;;;;1.67;1.57;;;;;;;18.86;59.49;98188.09;6899966;28;20260;-82
2023/08/04 03:26:18;;;;;;;1.93;1.70;;;;;;;18.92;59.37;98185.06;6899157;28;20208;-82
2023/08/04 03:29:39;;;;;;;4.90;1.97;;;;;;;18.87;59.09;98187.78;6904585;28;20263;-82
2023/08/04 03:33:00;;;;;;;2.10;1.70;;;;;;;18.66;59.72;98163.47;6907812;28;20207;-82
2023/08/04 03:36:23;;;;;;;4.37;1.50;;;;;;;19.01;58.96;98186.16;6906633;28;20271;-83
2023/08/04 03:39:45;;;;;;;3.03;1.80;;;;;;;19.28;58.29;98186.69;6907706;28;20610;-82
2023/08/04 03:43:06;;;;;;;7.37;1.80;;;;;;;19.33;57.65;98183.16;6907972;28;20248;-83
2023/08/04 03:46:28;;;;;;;4.00;1.70;;;;;;;19.22;58.13;98193.28;6896726;28;20232;-82
2023/08/04 03:49:49;;;;;;;2.23;1.70;;;;;;;18.62;59.12;98184.22;6896834;28;20320;-83
2023/08/04 03:53:12;;;;;;;2.10;1.63;;;;;;;18.65;60.26;98195.44;6895977;28;20296;-83
2023/08/04 03:56:33;;;;;;;2.20;1.90;;;;;;;19.07;58.83;98187.81;6895515;28;20243;-82
2023/08/04 03:59:55;;;;;;;1.70;1.57;;;;;;;19.23;58.43;98194.09;6896824;28;20299;-82
2023/08/04 04:03:16;;;;;;;1.77;1.67;;;;;;;19.41;57.61;98197.06;6896499;28;20283;-82
2023/08/04 04:06:38;;;;;;;2.50;1.50;;;;;;;19.60;56.44;98186.38;6893751;28;20363;-82
2023/08/04 04:10:01;;;;;;;1.90;1.37;;;;;;;19.57;56.47;98190.47;6894595;28;20326;-82
2023/08/04 04:13:23;;;;;;;7.03;2.10;;;;;;;19.33;57.43;98210.50;6895324;28;20240;-82
2023/08/04 04:16:44;;;;;;;3.87;1.40;;;;;;;19.41;57.15;98205.28;6894283;28;20261;-82
2023/08/04 04:20:07;;;;;;;4.27;1.67;;;;;;;19.48;56.77;98196.78;6892187;28;20366;-82
2023/08/04 04:23:29;;;;;;;1.77;1.67;;;;;;;19.46;56.91;98199.78;6893765;28;20299;-82
2023/08/04 04:26:51;;;;;;;2.00;1.50;;;;;;;19.39;56.74;98199.28;6892392;28;20295;-82
2023/08/04 04:30:13;;;;;;;3.33;2.00;;;;;;;18.79;58.98;98206.63;6893174;28;20319;-83
2023/08/04 04:33:34;;;;;;;3.57;1.73;;;;;;;18.84;59.10;98207.47;6892730;28;20310;-82
2023/08/04 04:36:58;;;;;;;2.83;1.80;;;;;;;19.07;58.62;98208.84;6894858;28;20935;-82
2023/08/04 04:40:19;;;;;;;4.17;1.73;;;;;;;19.22;58.27;98187.00;6894835;28;20721;-83
2023/08/04 04:43:42;;;;;;;2.40;1.73;;;;;;;19.47;57.79;98214.31;6892145;28;20290;-83
2023/08/04 04:47:04;;;;;;;2.83;1.70;;;;;;;19.06;58.40;98194.38;6891614;28;20288;-83
2023/08/04 04:50:26;;;;;;;1.90;1.70;;;;;;;18.95;59.23;98221.94;6891299;28;20232;-83
2023/08/04 04:53:47;;;;;;;2.43;1.60;;;;;;;19.42;58.44;98225.25;6888097;28;20295;-83
2023/08/04 04:57:09;;;;;;;2.97;2.00;;;;;;;19.32;58.75;98223.34;6893531;28;20298;-83
2023/08/04 05:00:32;;;;;;;1.87;1.60;;;;;;;19.17;59.03;98222.50;6898190;28;20293;-84
2023/08/04 05:03:54;;;;;;;3.20;2.17;;;;;;;19.80;57.78;98214.50;6905282;28;20212;-84
2023/08/04 05:07:15;;;;;;;2.60;1.73;;;;;;;19.79;57.43;98222.97;6904254;28;20219;-84
2023/08/04 05:10:37;;;;;;;1.90;1.70;;;;;;;19.83;58.17;98226.78;6904567;28;20323;-84
2023/08/04 05:13:58;;;;;;;1.90;1.80;;;;;;;20.07;57.71;98223.19;6903346;28;20220;-84
2023/08/04 05:17:21;;;;;;;3.87;1.97;;;;;;;20.46;55.54;98217.81;6903482;28;20366;-84
2023/08/04 05:20:44;;;;;;;1.70;1.60;;;;;;;20.12;57.42;98236.88;6902940;28;20251;-84
2023/08/04 05:24:05;;;;;;;2.70;1.77;;;;;;;20.06;57.97;98234.38;6901823;28;20227;-84
2023/08/04 05:27:27;;;;;;;2.53;1.60;;;;;;;20.28;57.41;98221.19;6901891;28;20553;-84
2023/08/04 05:30:49;;;;;;;2.47;1.67;;;;;;;20.27;57.69;98239.53;6900918;28;20252;-84
2023/08/04 05:34:11;;;;;;;3.53;1.63;;;;;;;20.25;57.73;98241.72;6901772;28;20248;-84
2023/08/04 05:37:34;;;;;;;2.50;2.00;;;;;;;20.71;56.69;98242.31;6901867;28;20221;-84
2023/08/04 05:40:55;;;;;;;4.57;2.00;;;;;;;21.11;56.02;98245.59;6899913;28;20230;-83
2023/08/04 05:44:17;;;;;;;2.23;1.87;;;;;;;21.36;54.99;98243.47;6899106;28;20243;-82
2023/08/04 05:47:38;;;;;;;5.03;2.40;;;;;;;21.64;54.29;98244.59;6898736;28;20197;-83
2023/08/04 05:51:01;;;;;;;3.40;1.90;;;;;;;21.67;54.06;98244.06;6898449;28;20719;-83
2023/08/04 05:54:23;;;;;;;5.07;2.47;;;;;;;21.74;54.24;98231.63;6898614;28;20208;-83
2023/08/04 05:57:44;;;;;;;4.30;2.40;;;;;;;21.65;53.88;98224.28;6891777;28;20278;-83
2023/08/04 06:01:06;;;;;;;2.47;1.60;;;;;;;21.88;52.80;98243.53;6895999;28;20287;-84
2023/08/04 06:04:28;;;;;;;4.17;1.80;;;;;;;22.03;52.45;98248.06;6898917;28;20197;-84
2023/08/04 06:07:51;;;;;;;2.67;1.80;;;;;;;21.98;52.32;98242.63;6872750;28;20214;-84
2023/08/04 06:11:13;;;;;;;2.63;2.00;;;;;;;22.12;52.60;98235.34;6869597;28;20247;-84
2023/08/04 06:14:34;;;;;;;3.13;1.80;;;;;;;21.80;52.03;98219.50;6871108;28;20233;-84
2023/08/04 06:17:56;;;;;;;1.87;1.77;;;;;;;22.23;51.65;98239.56;6867478;28;20248;-83
2023/08/04 06:21:17;;;;;;;2.00;1.60;;;;;;;22.61;50.50;98235.81;6865930;28;20276;-83
2023/08/04 06:24:40;;;;;;;2.00;1.80;;;;;;;22.49;51.29;98227.19;6865480;28;20227;-84
2023/08/04 06:28:02;;;;;;;1.80;1.70;;;;;;;22.72;49.97;98240.06;6864508;28;20247;-84
2023/08/04 06:31:23;;;;;;;3.00;1.50;;;;;;;22.38;51.86;98253.94;6865476;28;20229;-83
2023/08/04 06:34:45;;;;;;;2.40;1.67;;;;;;;22.75;51.43;98244.94;6865111;28;20704;-83
2023/08/04 06:38:06;;;;;;;1.80;1.70;;;;;;;22.98;50.47;98247.63;6864905;28;20244;-83
2023/08/04 06:41:29;;;;;;;2.87;1.70;;;;;;;23.35;49.50;98255.03;6866719;28;20252;-83
2023/08/04 06:44:50;;;;;;;3.17;1.70;;;;;;;23.55;48.75;98251.97;6866903;28;20261;-82
2023/08/04 06:48:12;;;;;;;1.70;1.60;;;;;;;23.65;47.95;98252.59;6869130;28;20990;-82
2023/08/04 06:51:33;;;;;;;1.67;1.57;;;;;;;24.16;47.14;98250.56;6871773;28;20288;-83
2023/08/04 06:54:55;;;;;;;2.70;1.83;;;;;;;24.06;47.24;98250.75;6895082;28;20248;-83
2023/08/04 06:58:18;;;;;;;4.27;1.77;;;;;;;23.88;46.87;98262.66;6894028;28;20256;-83
2023/08/04 07:01:39;;;;;;;1.67;1.40;;;;;;;23.70;48.51;98263.50;6892495;28;20319;-82
2023/08/04 07:05:01;;;;;;;1.87;1.43;;;;;;;23.89;47.71;98267.03;6894267;28;20209;-82
2023/08/04 07:08:22;;;;;;;3.47;1.50;;;;;;;23.62;47.33;98269.72;6906197;28;20230;-82
2023/08/04 07:11:45;;;;;;;3.13;1.50;;;;;;;23.46;46.42;98262.00;6893837;28;20241;-82
2023/08/04 07:15:09;;;;;;;1.33;1.23;;;;;;;23.82;46.15;98260.25;6892949;28;20246;-83
2023/08/04 07:18:30;;;;;;;1.70;1.30;;;;;;;23.50;45.69;98235.53;6894658;28;20201;-83
2023/08/04 07:21:52;;;;;;;2.20;1.47;;;;;;;23.58;44.74;98240.34;6914936;28;20730;-82
2023/08/04 07:25:13;;;;;;;3.00;1.30;;;;;;;23.69;45.48;98264.63;6920814;28;20213;-82
2023/08/04 07:28:36;;;;;;;1.90;1.27;;;;;;;24.45;44.85;98259.34;6913509;28;20386;-82
2023/08/04 07:31:58;;;;;;;1.63;1.30;;;;;;;24.65;43.21;98278.22;6899171;28;20247;-82
2023/08/04 07:35:20;;;;;;;1.73;1.60;;;;;;;24.77;43.94;98281.25;6924641;28;20300;-83
2023/08/04 07:38:42;;;;;;;1.70;1.30;;;;;;;24.52;43.58;98273.50;6922689;28;20530;-84
2023/08/04 07:42:04;;;;;;;2.53;1.60;;;;;;;24.49;44.64;98276.06;6926664;28;20224;-83
2023/08/04 07:45:26;;;;;;;1.70;1.30;;;;;;;25.06;43.01;98265.16;6921751;28;20693;-83
2023/08/04 07:48:49;;;;;;;2.00;1.30;;;;;;;25.32;43.05;98266.22;6922494;28;20317;-84
2023/08/04 07:52:11;;;;;;;2.33;1.23;;;;;;;25.19;43.76;98249.69;6921699;28;20224;-84
2023/08/04 07:55:34;;;;;;;2.67;1.20;;;;;;;25.45;42.16;98272.81;6867746;28;20248;-84
2023/08/04 07:58:55;;;;;;;3.33;1.43;;;;;;;25.51;42.29;98268.78;6869477;28;20213;-84
2023/08/04 08:02:17;;;;;;;1.57;1.20;;;;;;;25.76;40.28;98259.84;6869271;28;20243;-84
2023/08/04 08:05:40;;;;;;;1.93;1.40;;;;;;;26.25;40.45;98274.28;6869442;28;20233;-83
2023/08/04 08:09:02;;;;;;;3.03;1.37;;;;;;;27.32;38.08;98204.38;6872811;28;20224;-84
2023/08/04 08:12:23;;;;;;;2.03;1.53;;;;;;;27.56;38.29;98280.28;6919380;28;20279;-83
2023/08/04 08:15:45;;;;;;;3.13;1.30;;;;;;;27.30;38.49;98271.16;6918333;28;20192;-84
2023/08/04 08:19:07;;;;;;;2.13;1.40;;;;;;;26.72;38.31;98248.59;6920458;28;20205;-87
2023/08/04 08:22:30;;;;;;;2.20;1.30;;;;;;;27.57;37.41;98220.13;6921519;28;20260;-88
2023/08/04 08:25:58;;;;;;;3.10;1.43;;;;;;;28.59;36.07;98248.34;6919711;28;20209;-83
2023/08/04 08:29:20;;;;;;;2.23;1.10;;;;;;;29.13;34.35;98249.31;6910901;28;20209;-82
2023/08/04 08:32:41;;;;;;;0.83;0.80;;;;;;;28.99;34.29;98254.31;6914077;28;20315;-85
2023/08/04 08:36:04;;;;;;;0.87;0.80;;;;;;;28.25;35.31;98256.00;6918949;28;20672;-82
2023/08/04 08:39:28;;;;;;;3.13;1.50;;;;;;;27.63;36.98;98222.41;6919566;28;20209;-82
2023/08/04 08:42:49;;;;;;;1.10;1.00;;;;;;;28.26;35.15;98252.06;6921389;28;20230;-82
2023/08/04 08:46:11;;;;;;;1.30;1.20;;;;;;;27.45;37.29;98261.53;6918781;28;20251;-82
2023/08/04 08:49:34;;;;;;;1.93;1.20;;;;;;;28.85;35.94;98243.44;6919684;28;20289;-83
2023/08/04 08:52:59;;;;;;;1.97;1.20;;;;;;;28.35;35.84;98259.19;6902597;28;20229;-82
2023/08/04 08:56:22;;;;;;;2.27;1.33;;;;;;;28.91;34.03;98253.19;6892448;28;20294;-82
2023/08/04 08:59:44;;;;;;;1.80;1.27;;;;;;;28.97;34.54;98263.00;6893295;28;20238;-83
2023/08/04 09:03:05;;;;;;;2.47;1.30;;;;;;;28.58;35.59;98274.47;6890069;28;20246;-84
2023/08/04 09:06:27;;;;;;;2.13;1.50;;;;;;;28.62;36.56;98252.41;6862168;28;20211;-84
2023/08/04 09:09:48;;;;;;;1.73;1.07;;;;;;;29.78;32.87;98257.75;6862906;28;20278;-84
2023/08/04 09:13:12;;;;;;;2.77;1.50;;;;;;;29.82;34.24;98265.06;6864848;28;20205;-85
2023/08/04 09:16:36;;;;;;;2.57;1.13;;;;;;;29.70;34.09;98264.19;6862238;28;20259;-87
2023/08/04 09:19:58;;;;;;;2.67;1.30;;;;;;;29.65;34.45;98267.16;6877090;28;20209;-84
2023/08/04 09:23:20;;;;;;;2.50;1.33;;;;;;;30.16;33.26;98261.09;6893730;28;20331;-84
2023/08/04 09:26:43;;;;;;;1.33;1.07;;;;;;;30.22;32.65;98257.75;6892068;28;20212;-82
2023/08/04 09:30:07;;;;;;;1.30;1.07;;;;;;;30.11;33.21;98259.38;6896329;28;20242;-82
2023/08/04 09:33:29;;;;;;;2.70;1.20;;;;;;;28.84;34.99;98266.00;6891882;28;20892;-84
2023/08/04 09:36:52;;;;;;;2.23;1.23;;;;;;;28.91;35.26;98253.19;6862178;28;20745;-87
2023/08/04 09:40:15;;;;;;;1.03;0.97;;;;;;;28.43;35.11;98263.91;6863420;28;20236;-89
2023/08/04 09:43:43;;;;;;;1.90;1.10;;;;;;;27.98;36.71;98250.88;6892848;28;20281;-82
2023/08/04 09:47:06;;;;;;;1.93;1.20;;;;;;;28.69;35.66;98247.13;6892336;28;20287;-82
2023/08/04 09:50:28;;;;;;;2.07;1.27;;;;;;;28.83;35.97;98240.19;6892275;28;20281;-83
2023/08/04 09:53:51;;;;;;;1.63;1.40;;;;;;;29.25;34.13;98216.06;6894447;28;20292;-83
2023/08/04 09:57:14;;;;;;;2.03;1.13;;;;;;;29.42;34.81;98232.56;6893233;28;20293;-83
2023/08/04 10:00:36;;;;;;;1.37;1.23;;;;;;;30.35;33.80;98231.56;6879082;28;20222;-82
2023/08/04 10:04:00;;;;;;;1.33;1.23;;;;;;;28.96;34.69;98235.56;6875753;28;20216;-84
2023/08/04 10:07:21;;;;;;;1.97;1.30;;;;;;;29.69;34.83;98209.75;6902612;28;20239;-82
2023/08/04 10:10:43;;;;;;;2.00;1.10;;;;;;;30.47;32.85;98214.06;6914128;28;20275;-82
2023/08/04 10:14:05;;;;;;;2.13;1.23;;;;;;;30.01;33.56;98229.19;6892695;28;20233;-83
2023/08/04 10:17:27;;;;;;;1.27;1.17;;;;;;;30.37;33.32;98237.59;6891408;28;20217;-82
2023/08/04 10:20:51;;;;;;;1.83;1.37;;;;;;;29.85;33.47;98239.34;6895522;28;20613;-82
2023/08/04 10:24:17;;;;;;;2.33;1.20;;;;;;;30.02;33.19;98232.78;6917985;28;20343;-83
2023/08/04 10:27:47;;;;;;;1.20;1.10;;;;;;;30.19;33.10;98244.53;6923405;28;20198;-82
2023/08/04 10:31:13;;;;;;;1.53;1.30;;;;;;;30.88;32.45;98224.94;6926583;28;20234;-83
2023/08/04 10:34:36;;;;;;;1.30;1.10;;;;;;;31.10;32.35;98239.19;6930077;28;20206;-84
2023/08/04 10:38:00;;;;;;;1.83;1.40;;;;;;;30.84;31.15;98221.25;6926262;28;20250;-83
2023/08/04 10:41:22;;;;;;;1.33;1.10;;;;;;;31.04;31.85;98231.41;6926015;28;20230;-82
2023/08/04 10:44:52;;;;;;;1.67;1.00;;;;;;;30.62;32.47;98216.97;6927706;28;20761;-83
2023/08/04 10:48:15;;;;;;;3.07;1.23;;;;;;;30.50;31.77;98227.28;6925588;28;20212;-82
2023/08/04 10:51:37;;;;;;;2.07;1.20;;;;;;;29.53;33.48;98251.28;6926535;28;20238;-83
2023/08/04 10:55:00;;;;;;;1.20;1.10;;;;;;;28.77;34.97;98235.97;6927254;28;20259;-83
2023/08/04 10:58:22;;;;;;;1.43;1.33;;;;;;;28.61;34.50;98231.38;6926768;28;20739;-82
2023/08/04 11:01:44;;;;;;;4.30;1.30;;;;;;;28.65;36.33;98254.50;6926319;28;20323;-83
2023/08/04 11:05:08;;;;;;;2.20;1.30;;;;;;;28.84;34.84;98254.88;6926126;28;20223;-83
2023/08/04 11:08:30;;;;;;;2.80;1.43;;;;;;;28.63;35.72;98254.84;6926331;28;20221;-83
2023/08/04 11:11:55;;;;;;;1.80;1.43;;;;;;;28.95;35.98;98250.56;6927398;28;20317;-82
2023/08/04 11:15:16;;;;;;;1.90;1.40;;;;;;;28.04;36.85;98241.22;6931750;28;20217;-83
2023/08/04 11:18:37;;;;;;;1.87;1.20;;;;;;;28.30;36.84;98245.50;6945936;28;20206;-83
2023/08/04 11:22:07;;;;;;;1.53;1.00;;;;;;;28.09;37.01;98277.09;6909267;28;20639;-83
2023/08/04 11:25:29;;;;;;;2.53;1.17;;;;;;;27.84;37.58;98275.19;6903491;28;20212;-83
2023/08/04 11:28:51;;;;;;;1.77;1.00;;;;;;;27.34;38.57;98282.38;6902509;28;20297;-83
2023/08/04 11:32:20;;;;;;;3.60;1.30;;;;;;;27.48;40.26;98278.31;6901358;28;20314;-83
2023/08/04 11:35:41;;;;;;;2.70;1.40;;;;;;;26.91;44.55;98298.94;6902091;28;20302;-83
2023/08/04 11:39:03;;;;;;;1.93;1.37;;;;;;;26.52;47.84;98298.94;6902970;28;20215;-83
2023/08/04 11:42:25;;;;;;;1.87;1.33;;;;;;;26.39;46.12;98307.34;6899812;28;20225;-83
2023/08/04 11:45:49;;;;;;;1.60;1.13;;;;;;;26.77;47.21;98295.47;6896034;28;20259;-83
2023/08/04 11:49:10;;;;;;;3.10;1.70;;;;;;;26.85;46.55;98302.97;6894399;28;20292;-82
2023/08/04 11:52:37;;;;;;;2.27;1.57;;;;;;;26.55;46.83;98292.78;6896273;28;20307;-84
2023/08/04 11:56:01;;;;;;;2.77;1.20;;;;;;;26.43;46.89;98322.19;6893021;28;20200;-81
2023/08/04 11:59:24;;;;;;;1.70;1.50;;;;;;;26.25;47.83;98320.47;6896854;28;20208;-86
2023/08/04 12:02:58;;;;;;;1.70;1.40;;;;;;;26.77;46.04;98312.06;6895771;28;20246;-84
2023/08/04 12:06:21;;;;;;;2.20;1.27;;;;;;;26.57;45.80;98206.75;6896242;28;20201;-82
2023/08/04 12:09:45;;;;;;;2.00;1.50;;;;;;;27.51;45.13;98269.34;6896228;28;20236;-83
2023/08/04 12:13:07;;;;;;;1.60;1.10;;;;;;;27.28;43.76;98287.28;6896038;28;20247;-83
2023/08/04 12:16:29;;;;;;;2.03;1.50;;;;;;;26.91;45.65;98298.94;6894290;28;20303;-84
2023/08/04 12:19:51;;;;;;;1.33;1.17;;;;;;;26.94;45.25;98309.34;6895580;28;20205;-83
2023/08/04 12:23:13;;;;;;;1.97;1.43;;;;;;;26.81;44.91;98303.94;6894523;28;20212;-85
2023/08/04 12:26:35;;;;;;;1.30;1.20;;;;;;;26.92;44.15;98270.13;6895777;28;20213;-84
2023/08/04 12:29:57;;;;;;;2.90;1.40;;;;;;;27.13;44.00;98298.00;6897852;28;20241;-84
2023/08/04 12:33:18;;;;;;;3.67;1.50;;;;;;;26.29;44.84;98297.41;6898122;28;20204;-84
2023/08/04 12:36:41;;;;;;;2.80;1.90;;;;;;;25.87;44.74;98308.19;6898606;28;20244;-84
2023/08/04 12:40:04;;;;;;;1.27;1.17;;;;;;;25.97;44.82;98317.06;6897199;28;20228;-85
2023/08/04 12:43:25;;;;;;;2.60;1.90;;;;;;;26.54;44.36;98318.03;6889214;28;20278;-83
2023/08/04 12:46:47;;;;;;;2.10;1.30;;;;;;;26.44;44.36;98330.16;6894234;28;20204;-83
2023/08/04 12:50:09;;;;;;;2.67;1.30;;;;;;;26.31;45.02;98324.72;6892042;28;20267;-85
2023/08/04 12:53:31;;;;;;;1.30;1.20;;;;;;;26.11;43.67;98320.56;6889916;28;20549;-84
2023/08/04 12:56:53;;;;;;;1.53;1.20;;;;;;;26.18;46.57;98331.16;6889552;28;20209;-85
2023/08/04 13:00:16;;;;;;;2.70;1.50;;;;;;;26.11;45.61;98328.00;6895132;28;20282;-83
2023/08/04 13:03:37;;;;;;;1.27;1.00;;;;;;;26.21;47.21;98323.06;6896702;28;20889;-83
2023/08/04 13:06:59;;;;;;;2.27;1.57;;;;;;;26.33;47.68;98325.22;6897883;28;20225;-84
2023/08/04 13:10:22;;;;;;;3.33;1.30;;;;;;;26.92;46.78;98308.88;6899260;28;20320;-83
2023/08/04 13:13:43;;;;;;;1.60;1.27;;;;;;;27.31;47.40;98285.81;6899155;28;20288;-83
2023/08/04 13:17:06;;;;;;;1.20;1.10;;;;;;;28.21;43.26;98293.84;6896878;28;20675;-85
2023/08/04 13:20:27;;;;;;;2.40;1.47;;;;;;;27.77;45.42;98308.13;6896118;28;20275;-84
2023/08/04 13:23:49;;;;;;;2.60;1.13;;;;;;;28.35;41.78;98311.91;6897254;28;20296;-85
2023/08/04 13:27:11;;;;;;;3.17;1.30;;;;;;;28.21;41.14;98314.06;6897632;28;20231;-84
2023/08/04 13:30:33;;;;;;;2.73;1.47;;;;;;;28.31;43.25;98319.25;6896178;28;20324;-85
2023/08/04 13:33:55;;;;;;;0.90;0.90;;;;;;;28.12;40.26;98326.31;6895745;28;20206;-84
2023/08/04 13:37:17;;;;;;;1.67;1.00;;;;;;;28.21;41.68;98291.91;6894884;28;20229;-84
2023/08/04 13:40:38;;;;;;;2.83;1.10;;;;;;;28.23;40.21;98320.09;6895512;28;20720;-83
2023/08/04 13:44:01;;;;;;;0.87;0.87;;;;;;;28.81;39.01;98225.84;6895139;28;20298;-84
2023/08/04 13:47:24;;;;;;;1.23;1.13;;;;;;;28.66;40.38;98308.88;6894571;28;20211;-83
2023/08/04 13:50:45;;;;;;;2.20;1.67;;;;;;;27.74;41.71;98314.28;6895333;28;20244;-84
2023/08/04 13:54:07;;;;;;;1.67;1.50;;;;;;;27.14;43.15;98314.25;6897700;28;20204;-83
2023/08/04 13:57:28;;;;;;;2.70;1.33;;;;;;;26.69;44.69;98339.69;6900875;28;20705;-83
2023/08/04 14:00:58;;;;;;;1.23;1.13;;;;;;;27.34;43.50;98341.34;6901550;28;20728;-83
2023/08/04 14:04:20;;;;;;;1.70;1.47;;;;;;;27.48;43.12;98330.91;6900855;28;20197;-83
2023/08/04 14:07:42;;;;;;;2.30;1.30;;;;;;;27.49;42.84;98335.31;6895717;28;20414;-84
2023/08/04 14:11:03;;;;;;;3.37;1.40;;;;;;;27.16;42.75;98314.78;6889106;28;20239;-84
2023/08/04 14:14:26;;;;;;;1.53;1.07;;;;;;;27.18;42.50;98303.41;6895380;28;20205;-83
2023/08/04 14:17:49;;;;;;;2.27;1.20;;;;;;;27.29;41.41;98324.91;6901201;28;20257;-85
2023/08/04 14:21:10;;;;;;;1.10;1.00;;;;;;;26.95;42.15;98313.75;6899618;28;20304;-83
2023/08/04 14:24:32;;;;;;;1.30;1.20;;;;;;;27.06;42.48;98317.00;6901899;28;20238;-84
2023/08/04 14:27:53;;;;;;;1.40;1.30;;;;;;;27.05;42.66;98323.69;6899614;28;20680;-84
2023/08/04 14:31:15;;;;;;;1.90;1.20;;;;;;;26.82;42.75;98336.81;6898644;28;20271;-84
2023/08/04 14:34:38;;;;;;;1.23;1.20;;;;;;;26.82;43.80;98336.81;6895040;28;20208;-84
2023/08/04 14:38:00;;;;;;;1.40;1.00;;;;;;;26.91;42.41;98345.97;6898795;28;20685;-84
2023/08/04 14:41:21;;;;;;;1.60;1.20;;;;;;;26.52;42.65;98347.91;6892777;28;20228;-84
2023/08/04 14:44:43;;;;;;;1.20;1.10;;;;;;;26.60;42.51;98339.66;6900302;28;20226;-84
2023/08/04 14:48:04;;;;;;;1.33;1.23;;;;;;;26.74;42.67;98322.97;6899415;28;20690;-84
2023/08/04 14:51:30;;;;;;;1.43;1.10;;;;;;;26.40;43.53;98339.38;6900611;28;20277;-84
2023/08/04 14:54:52;;;;;;;1.57;1.30;;;;;;;26.78;43.01;98329.50;6901676;28;20204;-84
2023/08/04 14:58:14;;;;;;;1.77;1.67;;;;;;;26.30;45.32;98340.47;6899032;28;20670;-83
2023/08/04 15:01:35;;;;;;;1.60;1.50;;;;;;;26.11;46.76;98337.13;6898650;28;20386;-84
2023/08/04 15:04:57;;;;;;;2.70;2.00;;;;;;;25.14;47.66;98261.66;6894059;28;20300;-84
2023/08/04 15:08:20;;;;;;;2.83;1.67;;;;;;;25.62;47.87;98342.78;6870793;28;20243;-84
2023/08/04 15:11:41;;;;;;;3.10;2.07;;;;;;;26.14;46.36;98336.50;6872854;28;20380;-84
2023/08/04 15:15:03;;;;;;;2.70;1.80;;;;;;;25.88;46.05;98321.69;6871544;28;20202;-84
2023/08/04 15:18:25;;;;;;;2.40;1.70;;;;;;;26.28;45.09;98334.47;6871625;28;20232;-84
2023/08/04 15:21:46;;;;;;;2.93;1.63;;;;;;;25.89;44.89;98339.88;6895088;28;20266;-84
2023/08/04 15:25:09;;;;;;;1.70;1.60;;;;;;;25.84;45.69;98345.53;6899757;28;20829;-83
2023/08/04 15:28:31;;;;;;;1.77;1.67;;;;;;;25.97;45.20;98349.41;6920603;28;20285;-84
2023/08/04 15:31:52;;;;;;;2.23;1.40;;;;;;;26.40;44.01;98326.38;6929409;28;20265;-85
2023/08/04 15:35:17;;;;;;;1.50;1.40;;;;;;;25.81;45.63;98320.50;6924514;28;20250;-84
2023/08/04 15:38:38;;;;;;;1.83;1.30;;;;;;;26.64;44.05;98335.13;6915479;28;20282;-84
2023/08/04 15:42:01;;;;;;;1.80;1.70;;;;;;;26.23;43.71;98273.78;6897977;28;20315;-84
2023/08/04 15:45:23;;;;;;;1.30;1.30;;;;;;;26.84;44.41;98336.50;6896799;28;20205;-83
2023/08/04 15:48:44;;;;;;;1.83;1.60;;;;;;;26.66;44.35;98338.38;6896871;28;20204;-83
2023/08/04 15:52:07;;;;;;;2.20;1.70;;;;;;;26.43;44.35;98342.31;6896791;28;20255;-84